createdAt,value
2018-05-10T00:00:24.770Z,15.30
2018-05-10T00:01:27.271Z,7.50
2018-05-10T00:02:29.795Z,12.93
2018-05-10T00:03:32.329Z,12.32
2018-05-10T00:04:34.824Z,11.10
2018-05-10T00:05:38.098Z,13.77
2018-05-10T00:06:40.642Z,11.00
2018-05-10T00:07:43.166Z,8.48
2018-05-10T00:08:46.416Z,7.72
2018-05-10T00:09:48.925Z,16.20
2018-05-10T00:10:51.455Z,11.02
2018-05-10T00:11:53.941Z,8.73
2018-05-10T00:12:57.198Z,13.77
2018-05-10T00:13:59.719Z,15.52
2018-05-10T00:15:02.216Z,11.98
2018-05-10T00:16:04.719Z,16.92
2018-05-10T00:17:07.209Z,15.48
2018-05-10T00:18:10.460Z,9.70
2018-05-10T00:19:13.008Z,12.55
2018-05-10T00:20:15.519Z,9.75
2018-05-10T00:21:17.997Z,11.60
2018-05-10T00:22:20.517Z,11.63
2018-05-10T00:23:23.018Z,18.20
2018-05-10T00:24:25.547Z,11.05
2018-05-10T00:25:28.048Z,15.80
2018-05-10T00:26:30.553Z,11.27
2018-05-10T00:27:33.041Z,9.30
2018-05-10T00:28:36.305Z,10.50
2018-05-10T00:29:38.823Z,11.57
2018-05-10T00:30:41.342Z,12.10
2018-05-10T00:31:43.847Z,12.35
2018-05-10T00:32:46.352Z,10.07
2018-05-10T00:33:48.835Z,8.10
2018-05-10T00:34:51.325Z,24.15
2018-05-10T00:35:53.838Z,11.95
2018-05-10T00:36:56.344Z,13.27
2018-05-10T00:37:58.852Z,13.15
2018-05-10T00:39:02.117Z,10.48
2018-05-10T00:40:04.619Z,12.32
2018-05-10T00:41:07.895Z,9.75
2018-05-10T00:42:11.201Z,15.60
2018-05-10T00:43:13.691Z,7.93
2018-05-10T00:44:16.205Z,11.60
2018-05-10T00:45:18.709Z,9.27
2018-05-10T00:46:21.246Z,11.48
2018-05-10T00:47:23.743Z,10.85
2018-05-10T00:48:27.029Z,11.18
2018-05-10T00:49:30.288Z,9.27
2018-05-10T00:50:34.310Z,12.02
2018-05-10T00:51:36.819Z,17.48
2018-05-10T00:52:39.339Z,11.80
2018-05-10T00:53:41.840Z,11.98
2018-05-10T00:54:54.228Z,10.05
2018-05-10T00:55:57.507Z,19.08
2018-05-10T00:57:00.015Z,10.23
2018-05-10T00:58:02.515Z,9.55
2018-05-10T00:59:05.033Z,10.23
2018-05-10T01:00:08.296Z,17.08
2018-05-10T01:01:11.571Z,9.93
2018-05-10T01:02:14.098Z,16.15
2018-05-10T01:03:16.629Z,8.93
2018-05-10T01:04:19.906Z,10.20
2018-05-10T01:05:23.195Z,18.37
2018-05-10T01:06:25.721Z,7.30
2018-05-10T01:07:28.226Z,8.57
2018-05-10T01:08:30.703Z,8.80
2018-05-10T01:09:33.196Z,11.90
2018-05-10T01:10:35.703Z,14.50
2018-05-10T01:11:38.216Z,14.43
2018-05-10T01:12:40.714Z,8.10
2018-05-10T01:13:43.969Z,11.32
2018-05-10T01:14:46.457Z,12.63
2018-05-10T01:15:48.961Z,10.38
2018-05-10T01:16:51.458Z,14.15
2018-05-10T01:17:53.961Z,12.07
2018-05-10T01:18:56.477Z,11.27
2018-05-10T01:19:58.965Z,9.95
2018-05-10T01:21:01.469Z,9.18
2018-05-10T01:22:03.968Z,14.27
2018-05-10T01:23:07.235Z,11.82
2018-05-10T01:24:09.762Z,14.65
2018-05-10T01:25:12.273Z,11.60
2018-05-10T01:26:14.767Z,15.30
2018-05-10T01:27:18.042Z,11.55
2018-05-10T01:28:20.540Z,14.00
2018-05-10T01:29:23.041Z,10.75
2018-05-10T01:30:25.589Z,14.00
2018-05-10T01:31:28.091Z,10.77
2018-05-10T01:32:30.591Z,15.13
2018-05-10T01:33:33.103Z,8.55
2018-05-10T01:34:35.595Z,15.80
2018-05-10T01:35:50.037Z,16.52
2018-05-10T01:36:52.540Z,8.65
2018-05-10T01:37:55.059Z,11.48
2018-05-10T01:38:57.547Z,15.00
2018-05-10T01:40:00.064Z,17.55
2018-05-10T01:41:02.557Z,9.25
2018-05-10T01:42:05.827Z,8.85
2018-05-10T01:43:09.115Z,18.90
2018-05-10T01:44:11.604Z,11.88
2018-05-10T01:45:14.874Z,10.02
2018-05-10T01:46:17.389Z,21.10
2018-05-10T01:47:19.883Z,9.85
2018-05-10T01:48:22.378Z,22.20
2018-05-10T01:49:24.866Z,15.43
2018-05-10T01:50:28.129Z,14.20
2018-05-10T01:51:30.630Z,12.07
2018-05-10T01:52:33.897Z,9.60
2018-05-10T01:53:36.402Z,14.82
2018-05-10T01:54:38.913Z,8.88
2018-05-10T01:55:41.550Z,13.57
2018-05-10T01:56:44.058Z,11.02
2018-05-10T01:57:46.549Z,14.45
2018-05-10T01:58:49.057Z,11.18
2018-05-10T01:59:51.552Z,16.40
2018-05-10T02:00:54.077Z,11.12
2018-05-10T02:01:57.333Z,13.95
2018-05-10T02:02:59.820Z,15.13
2018-05-10T02:04:02.321Z,11.23
2018-05-10T02:06:42.504Z,10.45
2018-05-10T02:07:44.988Z,12.85
2018-05-10T02:08:47.484Z,16.77
2018-05-10T02:09:49.982Z,10.38
2018-05-10T02:10:53.244Z,11.10
2018-05-10T02:11:55.747Z,12.60
2018-05-10T02:12:59.005Z,14.52
2018-05-10T02:14:01.539Z,10.63
2018-05-10T02:15:04.055Z,11.15
2018-05-10T02:16:07.323Z,15.32
2018-05-10T02:17:09.828Z,18.65
2018-05-10T02:18:13.085Z,11.93
2018-05-10T02:19:15.595Z,14.65
2018-05-10T02:20:18.871Z,16.45
2018-05-10T02:21:22.141Z,13.62
2018-05-10T02:22:24.637Z,11.65
2018-05-10T02:23:27.894Z,16.12
2018-05-10T02:24:30.396Z,16.58
2018-05-10T02:25:33.678Z,11.55
2018-05-10T02:26:36.944Z,14.90
2018-05-10T02:27:39.451Z,17.08
2018-05-10T02:28:41.964Z,14.45
2018-05-10T02:29:44.495Z,11.02
2018-05-10T02:30:47.008Z,18.08
2018-05-10T02:31:49.514Z,18.45
2018-05-10T02:32:52.773Z,13.77
2018-05-10T02:33:55.271Z,12.80
2018-05-10T02:34:58.551Z,16.55
2018-05-10T02:36:01.810Z,13.90
2018-05-10T02:37:04.326Z,18.87
2018-05-10T02:38:07.595Z,18.90
2018-05-10T02:39:10.106Z,20.60
2018-05-10T02:40:12.616Z,15.00
2018-05-10T02:41:15.108Z,13.77
2018-05-10T02:42:18.376Z,18.02
2018-05-10T02:43:21.655Z,16.55
2018-05-10T02:44:24.157Z,17.25
2018-05-10T02:45:26.677Z,13.45
2018-05-10T02:46:29.198Z,13.60
2018-05-10T02:47:31.705Z,15.05
2018-05-10T02:48:34.187Z,17.05
2018-05-10T02:49:36.680Z,15.45
2018-05-10T02:50:39.224Z,16.58
2018-05-10T02:51:41.727Z,23.62
2018-05-10T02:52:44.219Z,15.63
2018-05-10T02:53:47.507Z,27.08
2018-05-10T02:54:50.000Z,18.10
2018-05-10T02:55:52.522Z,17.70
2018-05-10T02:56:55.023Z,16.60
2018-05-10T02:57:58.301Z,15.30
2018-05-10T02:59:00.814Z,15.63
2018-05-10T03:00:03.318Z,20.05
2018-05-10T03:01:05.860Z,18.70
2018-05-10T03:02:08.377Z,25.15
2018-05-10T03:03:10.950Z,34.50
2018-05-10T03:04:13.449Z,22.20
2018-05-10T03:05:16.720Z,32.70
2018-05-10T03:06:19.991Z,33.05
2018-05-10T03:07:22.503Z,36.45
2018-05-10T03:08:25.010Z,29.67
2018-05-10T03:09:27.508Z,35.15
2018-05-10T03:10:30.804Z,41.00
2018-05-10T03:11:33.315Z,49.53
2018-05-10T03:12:35.818Z,42.62
2018-05-10T03:13:38.338Z,44.72
2018-05-10T03:14:41.624Z,54.17
2018-05-10T03:15:44.895Z,48.58
2018-05-10T03:16:47.412Z,63.25
2018-05-10T03:17:49.910Z,51.83
2018-05-10T03:18:52.410Z,70.78
2018-05-10T03:19:55.668Z,67.00
2018-05-10T03:20:58.187Z,76.62
2018-05-10T03:22:00.712Z,82.32
2018-05-10T03:23:03.236Z,92.32
2018-05-10T03:24:05.736Z,89.53
2018-05-10T03:26:08.248Z,89.97
2018-05-10T03:27:10.814Z,102.43
2018-05-10T03:28:13.364Z,87.28
2018-05-10T03:29:15.866Z,99.32
2018-05-10T03:30:19.165Z,108.90
2018-05-10T03:31:22.431Z,106.53
2018-05-10T03:32:24.954Z,110.37
2018-05-10T03:33:27.476Z,110.63
2018-05-10T03:34:30.766Z,110.22
2018-05-10T03:35:33.270Z,122.30
2018-05-10T03:36:35.763Z,130.10
2018-05-10T03:37:38.274Z,128.00
2018-05-10T03:38:40.801Z,122.62
2018-05-10T03:39:43.296Z,125.20
2018-05-10T03:40:45.816Z,145.87
2018-05-10T03:41:48.369Z,127.18
2018-05-10T03:42:51.648Z,147.37
2018-05-10T03:43:54.235Z,135.90
2018-05-10T03:44:56.656Z,138.20
2018-05-10T03:45:59.152Z,136.85
2018-05-10T03:47:01.649Z,135.95
2018-05-10T03:48:04.928Z,134.35
2018-05-10T03:49:08.217Z,139.73
2018-05-10T03:50:10.731Z,140.20
2018-05-10T03:51:13.239Z,135.07
2018-05-10T03:52:15.736Z,143.80
2018-05-10T03:53:18.998Z,143.00
2018-05-10T03:54:21.530Z,146.45
2018-05-10T03:55:24.046Z,133.45
2018-05-10T03:56:27.317Z,149.38
2018-05-10T03:57:29.912Z,137.10
2018-05-10T03:58:32.411Z,130.68
2018-05-10T03:59:34.917Z,117.60
2018-05-10T04:00:37.439Z,129.25
2018-05-10T04:01:40.699Z,127.03
2018-05-10T04:04:32.725Z,120.05
2018-05-10T04:05:47.064Z,122.32
2018-05-10T04:07:01.617Z,124.03
2018-05-10T04:08:15.930Z,115.25
2018-05-10T04:09:30.345Z,114.62
2018-05-10T04:10:44.814Z,122.97
2018-05-10T04:11:48.080Z,106.43
2018-05-10T04:12:50.580Z,110.65
2018-05-10T04:13:53.841Z,114.43
2018-05-10T04:14:57.119Z,105.63
2018-05-10T04:15:59.689Z,108.55
2018-05-10T04:17:02.157Z,117.43
2018-05-10T04:18:04.652Z,114.03
2018-05-10T04:19:07.924Z,110.85
2018-05-10T04:20:10.483Z,127.50
2018-05-10T04:21:12.999Z,116.95
2018-05-10T04:22:15.523Z,115.47
2018-05-10T04:23:18.026Z,104.85
2018-05-10T04:24:20.532Z,112.05
2018-05-10T04:25:23.050Z,111.10
2018-05-10T04:26:25.552Z,101.90
2018-05-10T04:27:28.844Z,110.47
2018-05-10T04:28:32.107Z,92.97
2018-05-10T04:29:34.594Z,105.82
2018-05-10T04:30:37.898Z,104.38
2018-05-10T04:31:40.400Z,104.57
2018-05-10T04:32:42.911Z,99.20
2018-05-10T04:33:45.406Z,98.55
2018-05-10T04:34:47.910Z,98.57
2018-05-10T04:35:50.472Z,88.03
2018-05-10T04:36:53.037Z,97.47
2018-05-10T04:37:55.544Z,77.07
2018-05-10T04:38:58.053Z,97.47
2018-05-10T04:40:01.319Z,81.18
2018-05-10T04:41:04.609Z,77.62
2018-05-10T04:42:07.190Z,87.60
2018-05-10T04:43:09.645Z,81.60
2018-05-10T04:44:12.190Z,75.32
2018-05-10T04:45:14.693Z,79.20
2018-05-10T04:46:17.201Z,71.22
2018-05-10T04:47:19.710Z,69.35
2018-05-10T04:48:22.197Z,63.75
2018-05-10T04:49:24.694Z,68.57
2018-05-10T04:50:27.977Z,71.43
2018-05-10T04:51:30.493Z,69.35
2018-05-10T04:52:33.024Z,66.07
2018-05-10T04:53:36.376Z,71.43
2018-05-10T04:54:38.873Z,64.22
2018-05-10T04:55:42.164Z,71.57
2018-05-10T04:56:45.499Z,63.55
2018-05-10T04:57:48.033Z,72.10
2018-05-10T04:58:51.288Z,62.45
2018-05-10T04:59:53.804Z,63.20
2018-05-10T05:00:57.152Z,64.68
2018-05-10T05:01:59.642Z,69.80
2018-05-10T05:03:02.913Z,56.80
2018-05-10T05:04:05.408Z,71.03
2018-05-10T05:05:08.675Z,60.67
2018-05-10T05:06:11.207Z,56.30
2018-05-10T05:07:13.708Z,59.92
2018-05-10T05:08:16.219Z,59.35
2018-05-10T05:09:18.717Z,58.17
2018-05-10T05:10:21.243Z,60.63
2018-05-10T05:11:24.512Z,58.97
2018-05-10T05:12:27.013Z,57.25
2018-05-10T05:13:29.528Z,56.13
2018-05-10T05:14:32.028Z,59.67
2018-05-10T05:15:34.527Z,60.17
2018-05-10T05:16:37.052Z,53.65
2018-05-10T05:17:39.567Z,53.87
2018-05-10T05:18:42.244Z,49.92
2018-05-10T05:19:44.740Z,66.05
2018-05-10T05:20:47.265Z,43.08
2018-05-10T05:21:50.540Z,52.70
2018-05-10T05:22:53.033Z,48.65
2018-05-10T05:23:55.539Z,56.85
2018-05-10T05:24:58.032Z,51.65
2018-05-10T05:26:00.528Z,54.45
2018-05-10T05:27:03.805Z,56.10
2018-05-10T05:28:06.311Z,54.85
2018-05-10T05:29:08.820Z,57.30
2018-05-10T05:30:11.377Z,56.47
2018-05-10T05:31:13.875Z,56.30
2018-05-10T05:32:16.384Z,51.05
2018-05-10T05:33:18.895Z,52.67
2018-05-10T05:34:21.417Z,50.12
2018-05-10T05:35:24.719Z,56.10
2018-05-10T05:36:27.263Z,47.35
2018-05-10T05:37:30.532Z,56.67
2018-05-10T05:38:33.030Z,58.20
2018-05-10T05:39:36.311Z,49.83
2018-05-10T05:40:39.594Z,55.33
2018-05-10T05:41:42.118Z,49.63
2018-05-10T05:42:44.604Z,54.42
2018-05-10T05:43:47.106Z,44.80
2018-05-10T05:44:50.382Z,45.35
2018-05-10T05:45:52.894Z,47.10
2018-05-10T05:46:55.385Z,42.08
2018-05-10T05:47:57.935Z,52.75
2018-05-10T05:49:00.436Z,43.75
2018-05-10T05:50:02.937Z,57.45
2018-05-10T05:51:05.468Z,54.13
2018-05-10T05:52:07.982Z,65.78
2018-05-10T05:53:10.504Z,60.42
2018-05-10T05:54:13.023Z,51.37
2018-05-10T05:55:15.561Z,54.65
2018-05-10T05:56:18.081Z,52.10
2018-05-10T05:57:21.350Z,51.35
2018-05-10T05:58:23.849Z,47.25
2018-05-10T05:59:27.135Z,50.78
2018-05-10T06:00:30.941Z,57.78
2018-05-10T06:01:33.524Z,50.95
2018-05-10T06:02:36.056Z,52.80
2018-05-10T06:03:38.547Z,46.65
2018-05-10T06:04:41.814Z,48.03
2018-05-10T06:05:45.119Z,47.75
2018-05-10T06:06:48.388Z,46.20
2018-05-10T06:07:50.925Z,46.08
2018-05-10T06:08:53.407Z,45.50
2018-05-10T06:09:55.904Z,43.78
2018-05-10T06:10:59.212Z,50.10
2018-05-10T06:12:02.498Z,46.37
2018-05-10T06:13:05.777Z,43.80
2018-05-10T06:14:09.052Z,44.83
2018-05-10T06:15:12.369Z,35.58
2018-05-10T06:16:15.645Z,38.95
2018-05-10T06:17:18.931Z,38.42
2018-05-10T06:18:22.214Z,34.15
2018-05-10T06:19:24.749Z,38.40
2018-05-10T06:20:27.260Z,33.25
2018-05-10T06:21:29.788Z,33.70
2018-05-10T06:22:32.306Z,39.42
2018-05-10T06:23:35.562Z,30.45
2018-05-10T06:24:38.069Z,32.70
2018-05-10T06:25:41.384Z,28.77
2018-05-10T06:26:43.910Z,29.70
2018-05-10T06:27:47.205Z,28.73
2018-05-10T06:28:50.497Z,26.23
2018-05-10T06:29:53.770Z,25.10
2018-05-10T06:30:57.067Z,24.57
2018-05-10T06:32:00.350Z,25.90
2018-05-10T06:33:02.873Z,24.83
2018-05-10T06:34:05.397Z,25.33
2018-05-10T06:35:08.675Z,25.83
2018-05-10T06:36:11.195Z,24.87
2018-05-10T06:37:13.709Z,23.93
2018-05-10T06:38:16.234Z,22.50
2018-05-10T06:39:18.733Z,25.07
2018-05-10T06:40:21.255Z,25.63
2018-05-10T06:41:24.532Z,22.50
2018-05-10T06:42:27.810Z,23.07
2018-05-10T06:43:31.063Z,21.60
2018-05-10T06:44:33.583Z,21.87
2018-05-10T06:45:36.860Z,23.10
2018-05-10T06:46:39.367Z,20.70
2018-05-10T06:47:42.097Z,21.73
2018-05-10T06:48:45.357Z,17.37
2018-05-10T06:49:47.868Z,27.03
2018-05-10T06:50:51.148Z,21.47
2018-05-10T06:51:55.189Z,22.97
2018-05-10T06:52:57.724Z,20.97
2018-05-10T06:54:00.264Z,24.03
2018-05-10T06:55:02.786Z,23.20
2018-05-10T06:56:06.064Z,23.63
2018-05-10T06:57:09.483Z,25.53
2018-05-10T06:58:12.015Z,25.30
2018-05-10T06:59:15.320Z,25.40
2018-05-10T07:00:18.674Z,24.67
2018-05-10T07:01:24.685Z,23.27
2018-05-10T07:02:27.484Z,22.53
2018-05-10T07:03:30.163Z,23.60
2018-05-10T07:04:32.715Z,27.60
2018-05-10T07:05:35.345Z,24.10
2018-05-10T07:06:37.866Z,25.23
2018-05-10T07:07:40.392Z,26.00
2018-05-10T07:08:43.676Z,27.37
2018-05-10T07:09:46.599Z,24.53
2018-05-10T07:10:49.014Z,32.07
2018-05-10T07:11:51.525Z,29.50
2018-05-10T07:12:54.048Z,29.80
2018-05-10T07:13:56.553Z,29.03
2018-05-10T07:14:59.841Z,25.77
2018-05-10T07:16:02.367Z,31.20
2018-05-10T07:17:04.905Z,28.63
2018-05-10T07:18:07.456Z,30.60
2018-05-10T07:19:10.736Z,30.73
2018-05-10T07:20:14.021Z,31.43
2018-05-10T07:21:17.306Z,27.02
2018-05-10T07:22:20.583Z,28.90
2018-05-10T07:23:23.122Z,27.90
2018-05-10T07:24:25.638Z,27.13
2018-05-10T07:25:29.032Z,29.17
2018-05-10T07:26:31.542Z,29.17
2018-05-10T07:27:34.075Z,32.45
2018-05-10T07:28:37.356Z,30.67
2018-05-10T07:29:40.670Z,31.10
2018-05-10T07:30:43.185Z,27.80
2018-05-10T07:31:45.722Z,28.08
2018-05-10T07:32:49.118Z,28.60
2018-05-10T07:33:51.685Z,27.73
2018-05-10T07:34:54.188Z,28.48
2018-05-10T07:35:56.708Z,27.48
2018-05-10T07:36:59.998Z,29.30
2018-05-10T07:38:02.514Z,26.92
2018-05-10T07:39:05.067Z,29.80
2018-05-10T07:40:07.630Z,30.17
2018-05-10T07:41:10.165Z,28.02
2018-05-10T07:42:13.448Z,29.25
2018-05-10T07:43:15.943Z,28.25
2018-05-10T07:44:18.465Z,29.30
2018-05-10T07:45:21.039Z,30.23
2018-05-10T07:46:23.589Z,25.20
2018-05-10T07:47:26.212Z,31.65
2018-05-10T07:48:28.687Z,29.92
2018-05-10T07:49:32.006Z,27.03
2018-05-10T07:50:34.536Z,26.30
2018-05-10T07:51:37.052Z,25.43
2018-05-10T07:52:39.592Z,27.07
2018-05-10T07:53:42.887Z,25.03
2018-05-10T07:54:46.184Z,24.20
2018-05-10T07:55:48.732Z,24.40
2018-05-10T07:56:51.313Z,25.30
2018-05-10T07:57:54.614Z,22.30
2018-05-10T07:58:57.956Z,23.97
2018-05-10T08:00:00.539Z,23.10
2018-05-10T08:01:03.088Z,23.70
2018-05-10T08:02:05.620Z,22.03
2018-05-10T08:03:08.182Z,23.67
2018-05-10T08:04:11.472Z,22.50
2018-05-10T08:05:14.794Z,22.53
2018-05-10T08:06:17.356Z,21.90
2018-05-10T08:07:19.930Z,25.87
2018-05-10T08:08:22.498Z,21.07
2018-05-10T08:09:25.064Z,22.07
2018-05-10T08:10:27.657Z,19.23
2018-05-10T08:11:30.175Z,19.43
2018-05-10T08:12:32.688Z,20.63
2018-05-10T08:13:35.232Z,19.83
2018-05-10T08:14:38.519Z,16.33
2018-05-10T08:15:41.821Z,21.10
2018-05-10T08:16:44.366Z,22.93
2018-05-10T08:17:47.669Z,22.33
2018-05-10T08:18:51.006Z,23.13
2018-05-10T08:19:53.567Z,17.93
2018-05-10T08:20:56.122Z,16.67
2018-05-10T08:21:58.647Z,15.67
2018-05-10T08:23:01.159Z,18.23
2018-05-10T08:24:03.668Z,20.77
2018-05-10T08:25:06.251Z,16.03
2018-05-10T08:26:08.789Z,15.53
2018-05-10T08:27:11.415Z,15.77
2018-05-10T08:28:14.733Z,15.37
2018-05-10T08:29:17.244Z,14.20
2018-05-10T08:30:19.822Z,16.30
2018-05-10T08:31:22.342Z,17.50
2018-05-10T08:32:25.629Z,14.43
2018-05-10T08:33:28.905Z,13.80
2018-05-10T08:34:32.187Z,15.27
2018-05-10T08:35:35.470Z,17.60
2018-05-10T08:36:38.768Z,14.27
2018-05-10T08:37:42.060Z,14.03
2018-05-10T08:38:45.329Z,14.70
2018-05-10T08:39:48.639Z,12.87
2018-05-10T08:40:51.953Z,14.37
2018-05-10T08:41:54.517Z,12.77
2018-05-10T08:42:57.076Z,12.70
2018-05-10T08:43:59.602Z,14.20
2018-05-10T08:45:02.168Z,13.10
2018-05-10T08:46:04.678Z,13.40
2018-05-10T08:47:07.985Z,12.37
2018-05-10T08:48:10.648Z,11.60
2018-05-10T08:49:13.189Z,12.00
2018-05-10T08:50:15.693Z,12.63
2018-05-10T08:51:19.035Z,15.37
2018-05-10T08:52:22.350Z,10.20
2018-05-10T08:53:24.947Z,10.63
2018-05-10T08:54:28.260Z,10.53
2018-05-10T08:55:30.800Z,15.40
2018-05-10T08:56:34.122Z,12.57
2018-05-10T08:57:36.638Z,11.23
2018-05-10T08:58:39.915Z,10.40
2018-05-10T08:59:42.413Z,11.20
2018-05-10T09:00:45.693Z,9.00
2018-05-10T09:01:48.219Z,9.50
2018-05-10T09:02:50.799Z,9.00
2018-05-10T09:03:53.380Z,9.27
2018-05-10T09:04:55.886Z,12.70
2018-05-10T09:05:59.170Z,7.60
2018-05-10T09:07:02.453Z,11.23
2018-05-10T09:08:05.739Z,8.03
2018-05-10T09:09:08.348Z,8.50
2018-05-10T09:10:11.031Z,11.30
2018-05-10T09:11:13.590Z,7.87
2018-05-10T09:12:16.113Z,6.53
2018-05-10T09:13:18.681Z,6.60
2018-05-10T09:14:21.521Z,7.20
2018-05-10T09:15:24.813Z,7.00
2018-05-10T09:16:27.329Z,8.40
2018-05-10T09:17:29.830Z,6.27
2018-05-10T09:18:33.122Z,7.07
2018-05-10T09:19:35.738Z,7.53
2018-05-10T09:20:38.255Z,6.63
2018-05-10T09:21:41.576Z,6.50
2018-05-10T09:22:44.084Z,8.43
2018-05-10T09:23:46.610Z,8.03
2018-05-10T09:24:49.148Z,8.73
2018-05-10T09:25:52.437Z,9.37
2018-05-10T09:26:55.733Z,8.47
2018-05-10T09:27:59.019Z,10.80
2018-05-10T09:29:02.311Z,9.73
2018-05-10T09:30:05.811Z,8.00
2018-05-10T09:31:08.368Z,11.57
2018-05-10T09:32:11.752Z,8.67
2018-05-10T09:33:15.045Z,9.47
2018-05-10T09:34:18.378Z,9.80
2018-05-10T09:35:20.924Z,12.03
2018-05-10T09:36:24.209Z,9.10
2018-05-10T09:37:27.509Z,8.73
2018-05-10T09:38:30.049Z,11.70
2018-05-10T09:39:32.646Z,9.43
2018-05-10T09:40:35.180Z,11.47
2018-05-10T09:41:37.712Z,9.40
2018-05-10T09:42:40.219Z,9.03
2018-05-10T09:43:42.731Z,7.97
2018-05-10T09:44:45.307Z,7.70
2018-05-10T09:45:49.333Z,6.97
2018-05-10T09:46:51.858Z,9.13
2018-05-10T09:47:55.149Z,7.60
2018-05-10T09:48:57.676Z,8.33
2018-05-10T09:50:00.228Z,12.63
2018-05-10T09:51:02.755Z,10.73
2018-05-10T09:52:05.340Z,12.13
2018-05-10T09:53:08.627Z,12.47
2018-05-10T09:54:11.964Z,10.52
2018-05-10T09:55:14.514Z,12.55
2018-05-10T09:56:17.132Z,11.15
2018-05-10T09:57:21.268Z,10.50
2018-05-10T09:58:24.564Z,10.20
2018-05-10T09:59:27.131Z,10.45
2018-05-10T10:00:29.677Z,13.05
2018-05-10T10:01:32.482Z,14.85
2018-05-10T10:02:35.805Z,12.10
2018-05-10T10:03:38.313Z,9.32
2018-05-10T10:04:40.841Z,10.90
2018-05-10T10:05:43.376Z,17.35
2018-05-10T10:06:46.719Z,15.10
2018-05-10T10:07:49.349Z,14.15
2018-05-10T10:08:52.641Z,13.23
2018-05-10T10:09:55.972Z,15.35
2018-05-10T10:10:58.549Z,20.67
2018-05-10T10:12:01.110Z,13.50
2018-05-10T10:14:13.390Z,15.30
2018-05-10T10:15:15.981Z,16.10
2018-05-10T10:16:18.560Z,18.87
2018-05-10T10:17:21.148Z,19.20
2018-05-10T10:18:23.666Z,15.65
2018-05-10T10:19:26.948Z,18.15
2018-05-10T10:20:30.284Z,17.62
2018-05-10T10:21:32.826Z,15.93
2018-05-10T10:22:35.393Z,13.48
2018-05-10T10:23:37.953Z,13.73
2018-05-10T10:24:41.368Z,16.30
2018-05-10T10:25:43.914Z,16.20
2018-05-10T10:26:47.248Z,16.43
2018-05-10T10:27:49.826Z,20.50
2018-05-10T10:28:52.355Z,16.33
2018-05-10T10:29:55.639Z,15.87
2018-05-10T10:30:58.943Z,16.73
2018-05-10T10:32:02.252Z,19.53
2018-05-10T10:33:04.808Z,19.50
2018-05-10T10:34:07.383Z,19.90
2018-05-10T10:35:10.083Z,16.85
2018-05-10T10:36:12.666Z,18.80
2018-05-10T10:37:15.196Z,16.48
2018-05-10T10:38:17.806Z,17.42
2018-05-10T10:39:20.381Z,18.37
2018-05-10T10:40:22.922Z,19.52
2018-05-10T10:41:25.459Z,23.52
2018-05-10T10:42:28.741Z,19.83
2018-05-10T10:43:31.261Z,21.55
2018-05-10T10:44:33.782Z,17.20
2018-05-10T10:45:37.079Z,19.42
2018-05-10T10:46:40.422Z,17.67
2018-05-10T10:47:42.938Z,24.17
2018-05-10T10:48:46.240Z,21.37
2018-05-10T10:49:48.811Z,19.70
2018-05-10T10:50:52.089Z,18.92
2018-05-10T10:51:55.372Z,17.17
2018-05-10T10:52:58.035Z,21.50
2018-05-10T10:54:00.608Z,23.27
2018-05-10T10:55:03.863Z,18.92
2018-05-10T10:56:06.384Z,24.25
2018-05-10T10:57:09.689Z,19.42
2018-05-10T10:58:13.188Z,23.85
2018-05-10T10:59:15.729Z,26.95
2018-05-10T11:00:18.250Z,23.05
2018-05-10T11:01:20.757Z,23.98
2018-05-10T11:02:23.288Z,25.37
2018-05-10T11:03:25.788Z,23.75
2018-05-10T11:04:28.316Z,23.52
2018-05-10T11:05:30.842Z,23.75
2018-05-10T11:06:33.407Z,20.83
2018-05-10T11:07:35.949Z,22.13
2018-05-10T11:08:38.465Z,25.65
2018-05-10T11:09:41.011Z,22.98
2018-05-10T11:10:43.522Z,28.02
2018-05-10T11:11:46.820Z,32.25
2018-05-10T11:12:50.109Z,26.37
2018-05-10T11:13:53.426Z,24.35
2018-05-10T11:14:56.093Z,33.53
2018-05-10T11:15:58.559Z,19.77
2018-05-10T11:17:01.083Z,21.05
2018-05-10T11:18:03.607Z,22.37
2018-05-10T11:19:06.126Z,25.58
2018-05-10T11:20:10.644Z,24.98
2018-05-10T11:21:14.056Z,24.25
2018-05-10T11:22:17.345Z,27.60
2018-05-10T11:23:20.639Z,22.98
2018-05-10T11:24:23.166Z,26.10
2018-05-10T11:25:25.803Z,22.33
2018-05-10T11:26:28.365Z,22.10
2018-05-10T11:27:30.884Z,29.50
2018-05-10T11:28:33.410Z,22.48
2018-05-10T11:30:06.289Z,20.88
2018-05-10T11:31:08.843Z,22.87
2018-05-10T11:32:12.360Z,25.58
2018-05-10T11:33:14.903Z,22.40
2018-05-10T11:34:17.386Z,28.65
2018-05-10T11:35:20.679Z,20.92
2018-05-10T11:36:23.979Z,27.30
2018-05-10T11:37:26.492Z,23.77
2018-05-10T11:38:28.989Z,22.08
2018-05-10T11:39:31.520Z,30.48
2018-05-10T11:40:34.053Z,27.87
2018-05-10T11:41:37.341Z,24.15
2018-05-10T11:42:40.643Z,25.55
2018-05-10T11:43:43.165Z,25.15
2018-05-10T11:44:45.689Z,29.45
2018-05-10T11:45:48.223Z,25.75
2018-05-10T11:46:51.363Z,20.02
2018-05-10T11:47:54.007Z,22.60
2018-05-10T11:48:57.277Z,24.25
2018-05-10T11:50:00.590Z,21.75
2018-05-10T11:51:03.124Z,22.80
2018-05-10T11:52:05.640Z,26.83
2018-05-10T11:53:08.173Z,20.88
2018-05-10T11:54:10.864Z,24.20
2018-05-10T11:55:14.147Z,19.20
2018-05-10T11:56:17.615Z,25.55
2018-05-10T11:57:20.654Z,20.12
2018-05-10T11:58:23.135Z,19.37
2018-05-10T11:59:25.634Z,21.60
2018-05-10T12:00:28.147Z,19.85
2018-05-10T12:01:30.677Z,18.33
2018-05-10T12:02:33.251Z,23.73
2018-05-10T12:03:35.710Z,18.73
2018-05-10T12:04:38.249Z,20.70
2018-05-10T12:05:40.773Z,22.05
2018-05-10T12:06:44.078Z,19.23
2018-05-10T12:07:47.381Z,19.17
2018-05-10T12:08:49.866Z,27.55
2018-05-10T12:09:52.396Z,18.83
2018-05-10T12:10:55.699Z,22.98
2018-05-10T12:11:58.978Z,20.27
2018-05-10T12:13:02.281Z,20.85
2018-05-10T12:14:05.565Z,19.60
2018-05-10T12:15:08.839Z,21.48
2018-05-10T12:16:11.686Z,20.98
2018-05-10T12:17:14.192Z,18.65
2018-05-10T12:18:17.496Z,21.58
2018-05-10T12:19:20.759Z,21.52
2018-05-10T12:20:24.120Z,20.27
2018-05-10T12:21:26.660Z,18.40
2018-05-10T12:22:29.202Z,21.02
2018-05-10T12:23:32.468Z,20.70
2018-05-10T12:24:34.993Z,19.83
2018-05-10T12:25:37.584Z,14.90
2018-05-10T12:26:40.847Z,18.55
2018-05-10T12:27:43.385Z,19.00
2018-05-10T12:28:46.676Z,22.87
2018-05-10T12:29:49.969Z,15.68
2018-05-10T12:30:53.249Z,21.50
2018-05-10T12:31:56.591Z,21.85
2018-05-10T12:32:59.127Z,14.65
2018-05-10T12:34:02.485Z,14.40
2018-05-10T12:35:05.180Z,19.67
2018-05-10T12:36:08.444Z,12.60
2018-05-10T12:37:10.993Z,15.00
2018-05-10T12:38:13.503Z,9.85
2018-05-10T12:39:16.023Z,15.02
2018-05-10T12:40:18.526Z,16.40
2018-05-10T12:41:21.026Z,11.45
2018-05-10T12:42:24.304Z,13.48
2018-05-10T12:43:26.836Z,19.45
2018-05-10T12:44:29.384Z,9.82
2018-05-10T12:45:31.937Z,9.75
2018-05-10T12:46:35.291Z,10.40
2018-05-10T12:47:37.822Z,10.27
2018-05-10T12:48:40.390Z,10.25
2018-05-10T12:49:43.629Z,9.57
2018-05-10T12:50:46.144Z,13.55
2018-05-10T12:51:48.650Z,9.75
2018-05-10T12:52:51.188Z,8.23
2018-05-10T12:53:53.924Z,8.93
2018-05-10T12:54:56.429Z,12.13
2018-05-10T12:55:59.008Z,11.40
2018-05-10T12:57:02.239Z,12.90
2018-05-10T12:58:04.726Z,16.55
2018-05-10T12:59:08.027Z,16.12
2018-05-10T13:00:11.375Z,18.12
2018-05-10T13:01:14.035Z,13.52
2018-05-10T13:02:16.541Z,14.25
2018-05-10T13:03:19.798Z,10.15
2018-05-10T13:04:22.355Z,13.77
2018-05-10T13:05:24.860Z,12.70
2018-05-10T13:06:27.358Z,17.67
2018-05-10T13:07:30.637Z,16.75
2018-05-10T13:08:33.923Z,11.70
2018-05-10T13:09:36.442Z,10.30
2018-05-10T13:10:38.950Z,12.00
2018-05-10T13:11:42.973Z,14.13
2018-05-10T13:12:46.273Z,14.57
2018-05-10T13:13:49.548Z,15.55
2018-05-10T13:14:52.867Z,14.70
2018-05-10T13:15:55.443Z,15.32
2018-05-10T13:16:57.982Z,18.67
2018-05-10T13:18:01.287Z,17.08
2018-05-10T13:19:04.593Z,14.32
2018-05-10T13:20:07.134Z,20.48
2018-05-10T13:21:10.564Z,14.43
2018-05-10T13:22:13.224Z,15.70
2018-05-10T13:23:15.725Z,20.48
2018-05-10T13:24:18.236Z,20.30
2018-05-10T13:25:20.775Z,21.87
2018-05-10T13:26:23.916Z,19.17
2018-05-10T13:27:29.191Z,15.55
2018-05-10T13:28:32.518Z,15.20
2018-05-10T13:29:35.821Z,13.23
2018-05-10T13:30:38.540Z,17.40
2018-05-10T13:31:41.115Z,14.93
2018-05-10T13:32:43.652Z,21.35
2018-05-10T13:33:46.196Z,18.70
2018-05-10T13:34:49.540Z,15.25
2018-05-10T13:35:52.095Z,21.62
2018-05-10T13:36:54.606Z,17.80